Holmen, Wisconsin
Current Conditions -  °F | °C
As of 1:53 PM on Thursday 20 Nov 2014 (Local Time) from KLSE Reporting Station
Clear Clear  
Wind Chill:   Ceiling: Unl
Heat Index: 22°   Visibility: 10mi
Dew Point:   Wind: 15mph
Humidity: 40%   Direction: 310°NW
Pressure: 30.12"   Gusts: NA
Location:  43.96°N, 91.26°W
Report Text: KLSE 201953Z 31013KT 10SM CLR M06/M17 A3012 RMK AO2 SLP216 T10561172
Loading
Personal Weather Stations






























Interactive Weather Map New forecast layout! Learn more

10-Day Weather Forecast

Advertisements
Track Severe Weather on mobile